createdAt,value
2019-05-02T00:01:04.976Z,99.9
2019-05-02T00:02:12.177Z,99.9
2019-05-02T00:03:19.381Z,99.9
2019-05-02T00:04:26.324Z,99.9
2019-05-02T00:05:33.549Z,99.9
2019-05-02T00:06:42.782Z,99.9
2019-05-02T00:07:53.782Z,99.9
2019-05-02T00:09:09.062Z,99.9
2019-05-02T00:10:19.850Z,99.9
2019-05-02T00:11:32.336Z,99.9
2019-05-02T00:12:39.272Z,99.9
2019-05-02T00:13:46.490Z,99.9
2019-05-02T00:14:56.415Z,99.9
2019-05-02T00:16:13.995Z,99.9
2019-05-02T00:18:44.104Z,99.9
2019-05-02T00:19:51.395Z,99.9
2019-05-02T00:21:01.313Z,99.9
2019-05-02T00:22:12.133Z,99.9
2019-05-02T00:23:27.862Z,99.9
2019-05-02T00:24:39.156Z,99.9
2019-05-02T00:25:52.478Z,99.9
2019-05-02T00:27:02.857Z,99.9
2019-05-02T00:28:12.249Z,99.9
2019-05-02T00:29:23.652Z,99.9
2019-05-02T00:30:34.564Z,99.9
2019-05-02T00:31:46.797Z,99.9
2019-05-02T00:32:58.171Z,99.9
2019-05-02T00:35:13.278Z,99.9
2019-05-02T00:36:20.493Z,99.9
2019-05-02T00:37:27.418Z,99.9
2019-05-02T00:38:38.317Z,99.9
2019-05-02T00:39:49.127Z,99.9
2019-05-02T00:41:01.754Z,99.9
2019-05-02T00:42:12.609Z,99.9
2019-05-02T00:43:34.289Z,99.9
2019-05-02T00:44:46.805Z,99.9
2019-05-02T00:45:59.423Z,99.9
2019-05-02T00:47:10.800Z,99.9
2019-05-02T00:48:19.189Z,99.9
2019-05-02T00:49:30.924Z,99.9
2019-05-02T00:50:45.255Z,99.9
2019-05-02T00:52:01.258Z,99.9
2019-05-02T00:53:11.947Z,99.9
2019-05-02T00:54:24.110Z,99.9
2019-05-02T00:55:33.777Z,99.9
2019-05-02T00:56:44.026Z,99.9
2019-05-02T00:57:55.599Z,99.9
2019-05-02T00:59:07.324Z,99.9
2019-05-02T01:00:18.234Z,99.9
2019-05-02T01:01:29.357Z,99.9
2019-05-02T01:02:40.483Z,99.9
2019-05-02T01:03:51.964Z,99.9
2019-05-02T01:05:03.170Z,99.9
2019-05-02T01:06:14.205Z,99.9
2019-05-02T01:07:25.359Z,99.9
2019-05-02T01:08:35.569Z,99.9
2019-05-02T01:09:46.719Z,99.9
2019-05-02T01:10:56.753Z,99.9
2019-05-02T01:12:08.262Z,99.9
2019-05-02T01:13:19.109Z,99.9
2019-05-02T01:14:31.635Z,99.9
2019-05-02T01:15:43.985Z,99.9
2019-05-02T01:16:54.263Z,99.9
2019-05-02T01:18:05.981Z,99.9
2019-05-02T01:19:16.032Z,99.9
2019-05-02T01:20:27.384Z,99.9
2019-05-02T01:21:38.750Z,99.9
2019-05-02T01:22:47.048Z,99.9
2019-05-02T01:24:02.916Z,99.9
2019-05-02T01:25:15.597Z,99.9
2019-05-02T01:26:28.824Z,99.9
2019-05-02T01:27:41.066Z,99.9
2019-05-02T01:28:54.093Z,99.9
2019-05-02T01:30:05.856Z,99.9
2019-05-02T01:31:18.278Z,99.9
2019-05-02T01:32:29.995Z,99.9
2019-05-02T01:33:41.648Z,99.9
2019-05-02T01:34:54.298Z,99.9
2019-05-02T01:36:06.210Z,99.9
2019-05-02T01:37:20.578Z,99.9
2019-05-02T01:38:31.667Z,99.9
2019-05-02T01:39:42.671Z,99.9
2019-05-02T01:40:53.056Z,99.9
2019-05-02T01:42:04.073Z,99.9
2019-05-02T01:43:12.183Z,99.9
2019-05-02T01:44:19.398Z,99.9
2019-05-02T01:45:26.319Z,99.9
2019-05-02T01:46:33.530Z,99.9
2019-05-02T01:47:40.741Z,99.9
2019-05-02T01:48:47.955Z,99.9
2019-05-02T01:49:57.086Z,99.9
2019-05-02T01:51:09.901Z,99.9
2019-05-02T01:52:23.593Z,99.9
2019-05-02T01:53:34.120Z,99.9
2019-05-02T01:54:45.639Z,99.9
2019-05-02T01:55:57.241Z,99.9
2019-05-02T01:57:08.602Z,99.9
2019-05-02T01:58:20.691Z,99.9
2019-05-02T01:59:33.791Z,99.9
2019-05-02T02:00:44.718Z,99.9
2019-05-02T02:01:57.684Z,99.9
2019-05-02T02:03:09.004Z,99.9
2019-05-02T02:04:20.913Z,99.9
2019-05-02T02:05:32.206Z,99.9
2019-05-02T02:06:43.259Z,99.9
2019-05-02T02:07:55.448Z,99.9
2019-05-02T02:09:08.189Z,99.9
2019-05-02T02:10:19.717Z,99.9
2019-05-02T02:11:28.231Z,99.9
2019-05-02T02:12:56.466Z,99.9
2019-05-02T02:14:12.758Z,99.9
2019-05-02T02:15:28.962Z,99.9
2019-05-02T02:16:39.204Z,99.9
2019-05-02T02:17:51.395Z,99.9
2019-05-02T02:19:03.916Z,99.9
2019-05-02T02:20:14.008Z,99.9
2019-05-02T02:21:25.497Z,99.9
2019-05-02T02:22:39.042Z,99.9
2019-05-02T02:23:49.582Z,99.9
2019-05-02T02:25:00.923Z,99.9
2019-05-02T02:26:11.873Z,99.9
2019-05-02T02:27:24.530Z,99.9
2019-05-02T02:28:33.170Z,99.9
2019-05-02T02:29:43.921Z,99.9
2019-05-02T02:30:57.614Z,99.9
2019-05-02T02:32:19.901Z,99.9
2019-05-02T02:33:40.775Z,99.9
2019-05-02T02:34:56.403Z,99.9
2019-05-02T02:36:09.551Z,99.9
2019-05-02T02:37:16.473Z,99.9
2019-05-02T02:38:26.707Z,99.9
2019-05-02T02:39:42.117Z,99.9
2019-05-02T02:41:06.322Z,99.9
2019-05-02T02:42:24.820Z,99.9
2019-05-02T02:43:40.487Z,99.9
2019-05-02T02:44:47.702Z,99.9
2019-05-02T02:45:57.530Z,99.9
2019-05-02T02:47:11.800Z,99.9
2019-05-02T02:49:48.921Z,99.9
2019-05-02T02:51:21.957Z,99.9
2019-05-02T02:52:37.674Z,99.9
2019-05-02T02:54:02.611Z,99.9
2019-05-02T02:55:15.992Z,99.9
2019-05-02T02:56:34.314Z,99.9
2019-05-02T02:57:49.055Z,99.9
2019-05-02T02:58:56.266Z,99.9
2019-05-02T03:00:07.402Z,99.9
2019-05-02T03:01:26.864Z,99.9
2019-05-02T03:02:47.429Z,99.9
2019-05-02T03:04:01.705Z,99.9
2019-05-02T03:05:25.837Z,99.9
2019-05-02T03:06:38.187Z,99.9
2019-05-02T03:07:53.548Z,99.9
2019-05-02T03:09:13.427Z,99.9
2019-05-02T03:10:32.597Z,99.9
2019-05-02T03:11:50.018Z,99.9
2019-05-02T03:13:08.411Z,99.9
2019-05-02T03:14:30.092Z,99.9
2019-05-02T03:15:37.314Z,99.9
2019-05-02T03:16:46.861Z,99.9
2019-05-02T03:17:59.863Z,99.9
2019-05-02T03:19:14.449Z,99.9
2019-05-02T03:20:39.421Z,99.9
2019-05-02T03:21:54.190Z,99.9
2019-05-02T03:23:14.963Z,99.9
2019-05-02T03:24:30.366Z,99.9
2019-05-02T03:25:52.784Z,99.9
2019-05-02T03:26:59.994Z,99.9
2019-05-02T03:28:17.233Z,99.9
2019-05-02T03:29:39.074Z,99.9
2019-05-02T03:30:50.744Z,99.9
2019-05-02T03:32:22.557Z,99.9
2019-05-02T03:33:54.125Z,99.9
2019-05-02T03:35:07.747Z,99.9
2019-05-02T03:36:27.856Z,99.9
2019-05-02T03:37:44.649Z,99.9
2019-05-02T03:38:59.518Z,99.9
2019-05-02T03:40:19.354Z,99.9
2019-05-02T03:41:26.566Z,99.9
2019-05-02T03:42:43.350Z,99.9
2019-05-02T03:44:09.673Z,99.9
2019-05-02T03:45:39.747Z,99.9
2019-05-02T03:46:54.091Z,99.9
2019-05-02T03:48:17.711Z,99.9
2019-05-02T03:49:34.172Z,99.9
2019-05-02T03:50:58.367Z,99.9
2019-05-02T03:52:06.032Z,99.9
2019-05-02T03:53:17.489Z,99.9
2019-05-02T03:54:34.454Z,99.9
2019-05-02T03:55:54.992Z,99.9
2019-05-02T03:57:01.925Z,99.9
2019-05-02T03:58:13.963Z,99.9
2019-05-02T03:59:36.729Z,99.9
2019-05-02T04:00:48.488Z,99.9
2019-05-02T04:02:13.866Z,99.9
2019-05-02T04:03:33.840Z,99.9
2019-05-02T04:04:54.025Z,99.9
2019-05-02T04:06:13.639Z,99.9
2019-05-02T04:07:39.298Z,99.9
2019-05-02T04:08:58.647Z,99.9
2019-05-02T04:10:13.234Z,99.9
2019-05-02T04:11:37.801Z,99.9
2019-05-02T04:12:52.921Z,99.9
2019-05-02T04:14:14.571Z,99.9
2019-05-02T04:15:45.371Z,99.9
2019-05-02T04:16:55.037Z,99.9
2019-05-02T04:18:08.291Z,99.9
2019-05-02T04:19:28.494Z,99.9
2019-05-02T04:20:43.443Z,99.9
2019-05-02T04:22:01.440Z,99.9
2019-05-02T04:23:21.117Z,99.9
2019-05-02T04:24:36.235Z,99.9
2019-05-02T04:25:43.441Z,99.9
2019-05-02T04:26:53.501Z,99.9
2019-05-02T04:28:05.735Z,99.9
2019-05-02T04:29:24.384Z,99.9
2019-05-02T04:30:45.084Z,99.9
2019-05-02T04:32:04.195Z,99.9
2019-05-02T04:33:21.138Z,99.9
2019-05-02T04:34:28.353Z,99.9
2019-05-02T04:35:36.376Z,99.9
2019-05-02T04:36:46.249Z,99.9
2019-05-02T04:38:19.932Z,99.9
2019-05-02T04:40:02.948Z,99.9
2019-05-02T04:41:28.234Z,99.9
2019-05-02T04:42:40.920Z,99.9
2019-05-02T04:43:57.192Z,99.9
2019-05-02T04:45:21.618Z,99.9
2019-05-02T04:47:10.763Z,99.9
2019-05-02T04:48:28.654Z,99.9
2019-05-02T04:49:58.497Z,99.9
2019-05-02T04:51:09.671Z,99.9
2019-05-02T04:52:28.712Z,99.9
2019-05-02T04:53:42.018Z,99.9
2019-05-02T04:55:07.853Z,99.9
2019-05-02T04:56:48.492Z,99.9
2019-05-02T04:58:08.291Z,99.9
2019-05-02T04:59:19.716Z,99.9
2019-05-02T05:00:29.884Z,99.9
2019-05-02T05:01:43.104Z,99.9
2019-05-02T05:03:15.350Z,99.9
2019-05-02T05:04:27.712Z,99.9
2019-05-02T05:05:59.265Z,99.9
2019-05-02T05:07:18.823Z,99.9
2019-05-02T05:08:31.568Z,99.9
2019-05-02T05:09:40.184Z,99.9
2019-05-02T05:11:09.475Z,99.9
2019-05-02T05:12:32.431Z,99.9
2019-05-02T05:13:52.331Z,99.9
2019-05-02T05:15:07.804Z,99.9
2019-05-02T05:16:45.323Z,99.9
2019-05-02T05:18:04.342Z,99.9
2019-05-02T05:19:22.914Z,99.9
2019-05-02T05:20:40.497Z,99.9
2019-05-02T05:22:04.633Z,99.9
2019-05-02T05:23:21.274Z,99.9
2019-05-02T05:24:32.683Z,99.9
2019-05-02T05:25:50.612Z,99.9
2019-05-02T05:27:17.766Z,99.9
2019-05-02T05:28:29.469Z,99.9
2019-05-02T05:29:46.528Z,99.9
2019-05-02T05:31:16.319Z,99.9
2019-05-02T05:32:37.383Z,99.9
2019-05-02T05:33:44.223Z,99.9
2019-05-02T05:34:53.611Z,99.9
2019-05-02T05:36:00.817Z,99.9
2019-05-02T05:37:09.218Z,99.9
2019-05-02T05:38:22.867Z,99.9
2019-05-02T05:39:48.594Z,99.9
2019-05-02T05:41:02.933Z,99.9
2019-05-02T05:42:29.911Z,99.9
2019-05-02T05:43:40.331Z,99.9
2019-05-02T05:45:03.641Z,99.9
2019-05-02T05:46:20.294Z,99.9
2019-05-02T05:47:27.426Z,99.9
2019-05-02T05:48:37.053Z,99.9
2019-05-02T05:49:47.815Z,99.9
2019-05-02T05:51:07.317Z,99.9
2019-05-02T05:52:27.119Z,99.9
2019-05-02T05:53:39.063Z,99.9
2019-05-02T05:54:47.368Z,99.9
2019-05-02T05:55:58.817Z,99.9
2019-05-02T05:57:12.075Z,99.9
2019-05-02T05:58:28.386Z,99.9
2019-05-02T05:59:37.803Z,99.9
2019-05-02T06:00:45.803Z,99.9
2019-05-02T06:02:05.354Z,99.9
2019-05-02T06:03:21.071Z,99.9
2019-05-02T06:04:31.035Z,99.9
2019-05-02T06:05:40.952Z,99.9
2019-05-02T06:06:49.337Z,99.9
2019-05-02T06:08:09.119Z,99.9
2019-05-02T06:09:26.186Z,99.9
2019-05-02T06:10:38.932Z,99.9
2019-05-02T06:11:55.299Z,99.9
2019-05-02T06:13:05.134Z,99.9
2019-05-02T06:14:19.869Z,99.9
2019-05-02T06:15:33.802Z,99.9
2019-05-02T06:16:51.637Z,99.9
2019-05-02T06:18:04.686Z,99.9
2019-05-02T06:19:12.914Z,99.9
2019-05-02T06:20:25.603Z,99.9
2019-05-02T06:21:39.917Z,99.9
2019-05-02T06:22:54.892Z,99.9
2019-05-02T06:24:10.884Z,99.9
2019-05-02T06:25:31.989Z,99.9
2019-05-02T06:26:44.604Z,99.9
2019-05-02T06:28:00.098Z,99.9
2019-05-02T06:29:18.334Z,99.9
2019-05-02T06:30:30.981Z,99.9
2019-05-02T06:31:42.961Z,99.9
2019-05-02T06:32:54.834Z,99.9
2019-05-02T06:34:06.943Z,99.9
2019-05-02T06:35:17.036Z,99.9
2019-05-02T06:36:31.901Z,99.9
2019-05-02T06:37:45.208Z,99.9
2019-05-02T06:38:58.308Z,99.9
2019-05-02T06:40:07.957Z,99.9
2019-05-02T06:41:20.554Z,99.9
2019-05-02T06:42:32.567Z,99.9
2019-05-02T06:43:46.494Z,99.9
2019-05-02T06:44:59.645Z,99.9
2019-05-02T06:46:15.799Z,99.9
2019-05-02T06:47:40.804Z,99.9
2019-05-02T06:48:52.183Z,99.9
2019-05-02T06:50:01.014Z,99.9
2019-05-02T22:00:06.084Z,57.6
2019-05-02T22:01:13.303Z,57.2
2019-05-02T22:02:22.456Z,61.3
2019-05-02T22:03:29.773Z,64.9
2019-05-02T22:04:39.194Z,69
2019-05-02T22:05:48.561Z,69.4
2019-05-02T22:06:55.516Z,72.9
2019-05-02T22:08:02.952Z,69.5
2019-05-02T22:09:12.079Z,67.6
2019-05-02T22:10:19.468Z,72.8
2019-05-02T22:11:28.481Z,62.9
2019-05-02T22:12:37.773Z,65.2
2019-05-02T22:13:44.716Z,69.5
2019-05-02T22:14:52.769Z,69.4
2019-05-02T22:15:59.856Z,73.9
2019-05-02T22:17:09.060Z,76.6
2019-05-02T22:18:18.455Z,74.7
2019-05-02T22:19:27.389Z,57.2
2019-05-02T22:20:34.067Z,62.4
2019-05-02T22:21:42.872Z,63.5
2019-05-02T22:22:51.850Z,74.8
2019-05-02T22:24:08.890Z,72.2
2019-05-02T22:25:22.154Z,78.3
2019-05-02T22:27:38.458Z,67.8
2019-05-02T22:28:45.669Z,63.9
2019-05-02T22:29:54.639Z,65.6
2019-05-02T22:31:03.170Z,51
2019-05-02T22:32:12.297Z,47.2
2019-05-02T22:33:19.612Z,36.1
2019-05-02T22:34:29.106Z,37.5
2019-05-02T22:35:38.438Z,33.8
2019-05-02T22:36:49.556Z,35.4
2019-05-02T22:38:02.102Z,33
2019-05-02T22:39:08.875Z,30.1
2019-05-02T22:40:15.820Z,40.9
2019-05-02T22:41:23.022Z,37
2019-05-02T22:42:32.248Z,37.6
2019-05-02T22:43:39.537Z,39.6
2019-05-02T22:44:48.876Z,34.1
2019-05-02T22:45:56.087Z,35.6
2019-05-02T22:47:03.302Z,41.5
2019-05-02T22:48:11.887Z,40.5
2019-05-02T22:49:22.466Z,46.1
2019-05-02T22:50:29.823Z,59.1
2019-05-02T22:51:38.984Z,59.9
2019-05-02T22:52:46.207Z,60.8
2019-05-02T22:53:53.426Z,63
2019-05-02T22:55:02.853Z,64
2019-05-02T22:56:11.736Z,62.6
2019-05-02T22:57:22.389Z,67.5
2019-05-02T22:58:29.718Z,69.2
2019-05-02T22:59:38.404Z,63.2
2019-05-02T23:00:45.629Z,64.4
2019-05-02T23:01:52.819Z,53.9
2019-05-02T23:03:01.807Z,54.9
2019-05-02T23:04:09.097Z,54.8
2019-05-02T23:05:17.899Z,54.3
2019-05-02T23:06:25.110Z,58.4
2019-05-02T23:07:32.084Z,65
2019-05-02T23:08:38.485Z,60.7
2019-05-02T23:09:49.239Z,65.8
2019-05-02T23:10:58.386Z,66.6
2019-05-02T23:13:12.942Z,68.1
2019-05-02T23:14:22.042Z,65.9
2019-05-02T23:15:29.227Z,76.1
2019-05-02T23:16:38.361Z,78.7
2019-05-02T23:17:48.473Z,77.8
2019-05-02T23:18:55.408Z,82.3
2019-05-02T23:20:02.361Z,88.2
2019-05-02T23:21:09.573Z,76.9
2019-05-02T23:22:18.423Z,85.9
2019-05-02T23:23:27.647Z,85.2
2019-05-02T23:24:38.595Z,79.1
2019-05-02T23:25:48.352Z,80.7
2019-05-02T23:26:57.652Z,89
2019-05-02T23:28:04.597Z,93.3
2019-05-02T23:29:12.821Z,90
